Time;durP1;ratioP1;P1;durP2;ratioP2;P2;SDS_P1;SDS_P2;PMS_P1;PMS_P2;Temp;Humidity;BMP_temperature;BMP_pressure;BME280_temperature;BME280_humidity;BME280_pressure;Samples;Min_cycle;Max_cycle;Signal;HPM_P1;HPM_P2
2021/03/30 00:02:12;;;;;;;5.07;3.80;;;10.50;62.50;;;;;;5040491;28;20458;-41
2021/03/30 00:04:38;;;;;;;4.43;3.60;;;10.50;62.70;;;;;;5040655;28;20535;-43
2021/03/30 00:07:05;;;;;;;3.70;3.27;;;10.40;62.70;;;;;;5043351;28;20803;-43
2021/03/30 00:09:31;;;;;;;5.40;3.90;;;10.40;62.70;;;;;;5038612;28;20456;-42
2021/03/30 00:12:01;;;;;;;4.80;4.23;;;10.30;62.60;;;;;;5037469;28;20948;-43
2021/03/30 00:14:28;;;;;;;9.57;4.07;;;10.30;62.70;;;;;;5041299;28;20954;-43
2021/03/30 00:16:54;;;;;;;4.73;3.80;;;10.30;63.00;;;;;;5041472;28;20471;-42
2021/03/30 00:19:20;;;;;;;9.77;3.70;;;10.30;63.30;;;;;;5045872;28;20466;-43
2021/03/30 00:21:46;;;;;;;10.43;5.00;;;10.20;63.10;;;;;;5043479;28;20451;-43
2021/03/30 00:24:13;;;;;;;7.50;3.50;;;10.20;63.50;;;;;;5041294;28;20466;-43
2021/03/30 00:26:39;;;;;;;6.53;3.63;;;10.20;63.70;;;;;;5039122;28;20943;-40
2021/03/30 00:29:05;;;;;;;6.27;4.13;;;10.20;63.90;;;;;;5041926;28;20493;-43
2021/03/30 00:31:32;;;;;;;8.43;4.10;;;10.20;64.10;;;;;;5045917;28;20460;-43
2021/03/30 00:33:58;;;;;;;4.53;3.50;;;10.10;64.10;;;;;;5040554;28;21038;-43
2021/03/30 00:36:24;;;;;;;3.93;3.07;;;10.10;64.10;;;;;;5045015;28;20550;-43
2021/03/30 00:38:51;;;;;;;5.73;3.80;;;10.10;64.30;;;;;;5042186;28;20543;-40
2021/03/30 00:41:17;;;;;;;6.60;3.70;;;10.10;64.30;;;;;;5044056;28;20824;-41
2021/03/30 00:43:43;;;;;;;5.47;3.67;;;10.10;64.30;;;;;;5045058;28;20455;-41
2021/03/30 00:46:16;;;;;;;6.90;4.33;;;10.00;64.30;;;;;;5041921;28;20462;-41
2021/03/30 00:48:47;;;;;;;4.63;3.23;;;10.00;64.10;;;;;;5046185;28;20486;-41
2021/03/30 00:51:16;;;;;;;7.80;4.03;;;10.00;64.10;;;;;;5042530;28;20486;-40
2021/03/30 00:53:43;;;;;;;5.73;4.03;;;9.90;64.30;;;;;;5044757;28;20927;-40
2021/03/30 00:56:10;;;;;;;7.70;4.17;;;9.90;64.40;;;;;;5045205;28;20542;-41
2021/03/30 00:58:36;;;;;;;5.00;3.77;;;9.90;64.30;;;;;;5040560;28;20455;-43
2021/03/30 01:01:03;;;;;;;5.73;4.00;;;9.80;64.50;;;;;;5044259;28;20871;-43
2021/03/30 01:03:29;;;;;;;4.93;3.50;;;9.80;64.60;;;;;;5044659;28;20887;-41
2021/03/30 01:05:57;;;;;;;5.27;3.53;;;9.70;64.70;;;;;;5046307;28;20475;-40
2021/03/30 01:08:30;;;;;;;3.77;3.10;;;9.70;64.40;;;;;;5044621;28;20582;-40
2021/03/30 01:11:02;;;;;;;4.23;3.10;;;9.70;64.30;;;;;;5045728;28;20581;-41
2021/03/30 01:13:51;;;;;;;5.03;3.50;;;9.60;63.90;;;;;;5038385;28;20467;-40
2021/03/30 01:16:22;;;;;;;3.43;2.60;;;9.60;63.80;;;;;;5039187;28;20475;-43
2021/03/30 01:18:48;;;;;;;4.87;3.20;;;9.50;63.90;;;;;;5046005;28;21126;-40
2021/03/30 01:21:30;;;;;;;5.90;3.40;;;9.50;64.20;;;;;;5045089;28;20459;-43
2021/03/30 01:24:03;;;;;;;3.60;3.10;;;9.40;64.50;;;;;;5040062;28;20936;-41
2021/03/30 01:27:06;;;;;;;6.90;4.13;;;9.40;64.50;;;;;;5059549;28;20456;-41
2021/03/30 01:29:44;;;;;;;6.23;2.90;;;9.30;64.50;;;;;;5043192;28;20490;-43
2021/03/30 01:32:25;;;;;;;4.93;3.93;;;9.30;64.70;;;;;;5046282;28;20956;-41
2021/03/30 01:34:54;;;;;;;7.00;3.50;;;9.30;64.80;;;;;;5042251;28;20450;-40
2021/03/30 01:37:22;;;;;;;4.50;3.10;;;9.30;64.70;;;;;;5042988;28;21005;-40
2021/03/30 01:39:55;;;;;;;6.07;3.97;;;9.20;64.80;;;;;;5043898;28;20902;-40
2021/03/30 01:42:24;;;;;;;4.47;3.80;;;9.20;64.70;;;;;;5045031;28;20965;-40
2021/03/30 01:44:51;;;;;;;12.40;4.00;;;9.20;64.50;;;;;;5044842;28;20465;-41
2021/03/30 01:47:20;;;;;;;5.50;4.00;;;9.10;64.60;;;;;;5041509;28;20829;-41
2021/03/30 01:49:47;;;;;;;4.20;3.90;;;9.10;64.90;;;;;;5044444;28;20458;-41
2021/03/30 01:52:18;;;;;;;4.53;3.73;;;9.10;65.00;;;;;;5041847;28;20477;-41
2021/03/30 01:54:50;;;;;;;5.67;4.47;;;9.00;65.10;;;;;;5043393;28;20450;-41
2021/03/30 01:57:36;;;;;;;5.40;4.70;;;9.00;65.20;;;;;;5043110;28;20509;-41
2021/03/30 02:00:09;;;;;;;8.83;4.83;;;9.00;65.20;;;;;;5044949;28;20447;-41
2021/03/30 02:02:36;;;;;;;4.17;3.50;;;8.90;65.10;;;;;;5042357;28;21001;-41
2021/03/30 02:05:06;;;;;;;6.77;4.07;;;8.90;65.00;;;;;;5046874;28;20469;-41
2021/03/30 02:07:33;;;;;;;5.10;4.10;;;8.90;65.10;;;;;;5045545;28;20454;-41
2021/03/30 02:10:07;;;;;;;3.80;3.33;;;8.80;65.30;;;;;;5039459;28;20454;-41
2021/03/30 02:12:41;;;;;;;4.30;3.90;;;8.80;65.20;;;;;;5046948;28;20454;-41
2021/03/30 02:15:13;;;;;;;5.77;3.63;;;8.80;65.40;;;;;;5043912;28;20446;-41
2021/03/30 02:17:48;;;;;;;5.80;3.67;;;8.80;66.00;;;;;;5043483;28;20660;-41
2021/03/30 02:20:20;;;;;;;3.77;3.47;;;8.70;66.00;;;;;;5039980;28;20458;-41
2021/03/30 02:23:15;;;;;;;4.83;3.80;;;8.70;66.20;;;;;;5041168;28;20454;-41
2021/03/30 02:25:46;;;;;;;4.80;3.83;;;8.70;66.20;;;;;;5041508;28;20467;-41
2021/03/30 02:28:16;;;;;;;8.70;4.67;;;8.60;66.30;;;;;;5045023;28;20482;-41
2021/03/30 02:30:45;;;;;;;6.03;4.27;;;8.60;66.60;;;;;;5043734;28;20500;-41
2021/03/30 02:33:15;;;;;;;4.20;3.80;;;8.60;66.90;;;;;;5044809;28;20556;-41
2021/03/30 02:35:43;;;;;;;7.00;4.70;;;8.60;67.00;;;;;;5042523;28;20506;-41
2021/03/30 02:38:10;;;;;;;5.33;4.30;;;8.60;67.20;;;;;;5043590;28;20921;-41
2021/03/30 02:40:37;;;;;;;4.87;4.13;;;8.60;67.40;;;;;;5042351;28;20453;-41
2021/03/30 02:43:05;;;;;;;7.20;4.07;;;8.50;67.30;;;;;;5041659;28;20459;-44
2021/03/30 02:45:32;;;;;;;6.27;4.57;;;8.50;67.30;;;;;;5041081;28;20459;-44
2021/03/30 02:48:07;;;;;;;4.23;3.83;;;8.50;67.30;;;;;;5045510;28;20613;-44
2021/03/30 02:50:34;;;;;;;4.63;3.70;;;8.50;67.30;;;;;;5038792;28;20464;-44
2021/03/30 02:53:02;;;;;;;7.03;4.90;;;8.50;67.50;;;;;;5044979;28;20550;-41
2021/03/30 02:55:33;;;;;;;6.80;4.57;;;8.50;67.60;;;;;;5042261;28;20455;-41
2021/03/30 02:58:00;;;;;;;5.70;4.70;;;8.50;67.60;;;;;;5046501;28;21046;-41
2021/03/30 03:00:27;;;;;;;5.30;3.47;;;8.50;67.40;;;;;;5045631;28;20478;-41
2021/03/30 03:02:59;;;;;;;5.30;4.17;;;8.40;67.50;;;;;;5042489;28;20549;-41
2021/03/30 03:05:25;;;;;;;6.57;4.33;;;8.40;67.60;;;;;;5058940;28;20468;-41
2021/03/30 03:07:54;;;;;;;5.17;3.80;;;8.40;67.50;;;;;;5041462;28;20995;-41
2021/03/30 03:10:23;;;;;;;5.20;3.60;;;8.40;67.50;;;;;;5042511;28;20888;-41
2021/03/30 03:12:51;;;;;;;6.03;4.50;;;8.40;67.50;;;;;;5039890;28;20455;-41
2021/03/30 03:15:19;;;;;;;6.30;4.53;;;8.40;67.40;;;;;;5045503;28;20537;-41
2021/03/30 03:17:46;;;;;;;4.83;3.90;;;8.30;67.40;;;;;;5040665;28;20483;-41
2021/03/30 03:20:16;;;;;;;5.70;4.13;;;8.30;67.40;;;;;;5039647;28;20454;-41
2021/03/30 03:22:44;;;;;;;4.53;4.10;;;8.30;67.50;;;;;;5039006;28;20464;-41
2021/03/30 03:25:13;;;;;;;4.60;3.60;;;8.20;67.60;;;;;;5041728;28;20462;-41
2021/03/30 03:27:39;;;;;;;5.03;3.40;;;8.20;67.50;;;;;;5041013;28;20450;-41
2021/03/30 03:30:07;;;;;;;4.93;3.80;;;8.10;67.50;;;;;;5039500;28;20454;-41
2021/03/30 03:32:38;;;;;;;6.20;4.20;;;8.10;67.50;;;;;;5043065;28;20458;-41
2021/03/30 03:35:09;;;;;;;7.47;3.70;;;8.10;67.60;;;;;;5043469;28;21015;-41
2021/03/30 03:37:46;;;;;;;4.00;3.60;;;8.00;67.70;;;;;;5040328;28;20481;-41
2021/03/30 03:40:14;;;;;;;7.20;4.00;;;8.00;67.60;;;;;;5040901;28;20533;-41
2021/03/30 03:42:41;;;;;;;4.67;3.97;;;8.00;67.60;;;;;;5040615;28;20481;-41
2021/03/30 03:45:10;;;;;;;4.83;4.37;;;8.00;67.60;;;;;;5040381;28;20458;-41
2021/03/30 03:47:36;;;;;;;5.60;4.33;;;7.90;67.50;;;;;;5044651;28;20458;-41
2021/03/30 03:50:03;;;;;;;4.93;4.13;;;7.90;67.50;;;;;;5040520;28;20542;-41
2021/03/30 03:52:35;;;;;;;5.57;4.07;;;7.80;67.50;;;;;;5057998;28;20546;-42
2021/03/30 03:55:03;;;;;;;12.03;5.30;;;7.80;67.70;;;;;;5042683;28;20546;-42
2021/03/30 03:57:39;;;;;;;5.50;4.23;;;7.80;67.80;;;;;;5046157;28;20466;-43
2021/03/30 04:00:06;;;;;;;5.80;4.50;;;7.70;67.80;;;;;;5046997;28;20823;-43
2021/03/30 04:02:43;;;;;;;5.30;4.03;;;7.70;68.10;;;;;;5047466;28;20584;-42
2021/03/30 04:05:15;;;;;;;5.93;4.13;;;7.70;68.30;;;;;;5047152;28;20453;-42
2021/03/30 04:07:52;;;;;;;11.13;4.70;;;7.60;68.40;;;;;;5042661;28;20446;-43
2021/03/30 04:10:23;;;;;;;8.00;6.27;;;7.60;68.60;;;;;;5048370;28;20467;-42
2021/03/30 04:12:51;;;;;;;7.70;5.30;;;7.50;68.70;;;;;;5042756;28;20463;-42
2021/03/30 04:15:22;;;;;;;7.63;6.33;;;7.50;68.80;;;;;;5044813;28;20860;-41
2021/03/30 04:17:48;;;;;;;8.27;5.17;;;7.50;69.00;;;;;;5049944;28;20480;-41
2021/03/30 04:20:16;;;;;;;6.30;5.20;;;7.50;69.10;;;;;;5045724;28;20454;-41
2021/03/30 04:22:57;;;;;;;6.30;4.70;;;7.50;69.10;;;;;;5049037;28;20454;-41
2021/03/30 04:25:23;;;;;;;6.67;5.00;;;7.50;69.20;;;;;;5041528;28;20545;-41
2021/03/30 04:27:50;;;;;;;7.63;4.60;;;7.40;69.20;;;;;;5048139;28;21132;-41
2021/03/30 04:30:17;;;;;;;6.07;5.03;;;7.40;69.30;;;;;;5039430;28;21015;-41
2021/03/30 04:32:44;;;;;;;7.07;4.83;;;7.40;69.50;;;;;;5049516;28;20953;-41
2021/03/30 04:35:11;;;;;;;9.63;5.07;;;7.40;69.60;;;;;;5046188;28;20817;-41
2021/03/30 04:37:38;;;;;;;7.27;4.57;;;7.40;69.60;;;;;;5045984;28;21152;-41
2021/03/30 04:40:09;;;;;;;10.13;5.50;;;7.40;69.60;;;;;;5046392;28;20480;-41
2021/03/30 04:42:38;;;;;;;4.53;3.93;;;7.40;69.70;;;;;;5045189;28;20464;-41
2021/03/30 04:45:06;;;;;;;7.80;4.73;;;7.40;69.70;;;;;;5046200;28;20541;-41
2021/03/30 04:47:35;;;;;;;5.23;4.73;;;7.40;69.80;;;;;;5044436;28;20852;-41
2021/03/30 04:50:03;;;;;;;6.97;6.27;;;7.40;69.80;;;;;;5042978;28;20550;-41
2021/03/30 04:52:30;;;;;;;7.07;4.57;;;7.40;69.90;;;;;;5029463;28;20499;-40
2021/03/30 04:54:59;;;;;;;8.23;5.00;;;7.30;70.00;;;;;;5041176;28;21016;-41
2021/03/30 04:57:25;;;;;;;5.20;4.33;;;7.40;70.30;;;;;;5045268;28;21027;-41
2021/03/30 04:59:51;;;;;;;6.20;4.63;;;7.30;70.30;;;;;;5042094;28;20473;-41
2021/03/30 05:02:18;;;;;;;8.80;6.33;;;7.30;70.20;;;;;;5046195;28;20528;-40
2021/03/30 05:04:44;;;;;;;6.83;5.33;;;7.30;70.30;;;;;;5043925;28;20454;-40
2021/03/30 05:07:10;;;;;;;4.90;4.40;;;7.30;70.20;;;;;;5043219;28;20452;-41
2021/03/30 05:09:37;;;;;;;6.70;4.60;;;7.30;70.00;;;;;;5044523;28;21010;-43
2021/03/30 05:12:04;;;;;;;11.10;4.80;;;7.30;69.90;;;;;;5040413;28;21011;-41
2021/03/30 05:14:30;;;;;;;9.93;4.40;;;7.30;69.70;;;;;;5042091;28;20466;-43
2021/03/30 05:16:56;;;;;;;8.67;4.53;;;7.20;69.60;;;;;;5044877;28;20987;-41
2021/03/30 05:19:22;;;;;;;5.60;4.63;;;7.20;69.70;;;;;;5043525;28;21027;-40
2021/03/30 05:21:48;;;;;;;5.80;4.10;;;7.20;69.80;;;;;;5046069;28;20885;-42
2021/03/30 05:24:15;;;;;;;5.80;4.50;;;7.10;69.90;;;;;;5040844;28;20479;-40
2021/03/30 05:26:41;;;;;;;7.40;4.37;;;7.10;70.10;;;;;;5043850;28;20450;-41
2021/03/30 05:29:07;;;;;;;8.23;4.10;;;7.10;70.20;;;;;;5045026;28;20478;-41
2021/03/30 05:31:33;;;;;;;6.40;5.27;;;7.10;70.40;;;;;;5044465;28;20903;-41
2021/03/30 05:34:00;;;;;;;8.97;5.10;;;7.10;70.50;;;;;;5046152;28;20442;-41
2021/03/30 05:36:26;;;;;;;6.87;5.30;;;7.10;70.60;;;;;;5045956;28;20456;-40
2021/03/30 05:38:53;;;;;;;8.83;5.37;;;7.00;70.60;;;;;;5045272;28;20493;-41
2021/03/30 05:41:19;;;;;;;6.47;5.23;;;7.10;70.80;;;;;;5044833;28;20827;-41
2021/03/30 05:43:46;;;;;;;8.00;5.70;;;7.10;71.00;;;;;;5041845;28;20458;-41
2021/03/30 05:46:13;;;;;;;12.47;6.20;;;7.10;71.10;;;;;;5055472;28;20529;-41
2021/03/30 05:48:43;;;;;;;10.03;5.70;;;7.10;71.30;;;;;;5041919;28;20490;-41
2021/03/30 05:51:12;;;;;;;7.43;6.40;;;7.10;71.30;;;;;;5045539;28;20541;-41
2021/03/30 05:53:42;;;;;;;6.87;5.93;;;7.10;71.40;;;;;;5045560;28;20469;-41
2021/03/30 05:56:09;;;;;;;10.47;5.43;;;7.10;71.50;;;;;;5040573;28;20461;-41
2021/03/30 05:58:38;;;;;;;13.33;5.60;;;7.10;71.50;;;;;;5038455;28;20550;-41
2021/03/30 06:01:05;;;;;;;6.77;6.10;;;7.20;71.70;;;;;;5038517;28;20454;-41
2021/03/30 06:03:34;;;;;;;8.50;5.90;;;7.20;71.80;;;;;;5045224;28;20831;-41
2021/03/30 06:06:02;;;;;;;10.40;5.60;;;7.20;71.90;;;;;;5038900;28;20447;-41
2021/03/30 06:08:30;;;;;;;11.23;6.33;;;7.30;71.80;;;;;;5043578;28;20486;-40
2021/03/30 06:11:04;;;;;;;8.30;5.60;;;7.30;71.80;;;;;;5041467;28;20483;-41
2021/03/30 06:13:45;;;;;;;7.13;5.20;;;7.30;71.80;;;;;;5041976;28;20463;-40
2021/03/30 06:16:33;;;;;;;12.80;6.53;;;7.30;71.90;;;;;;5040820;28;20502;-41
2021/03/30 06:19:06;;;;;;;10.50;5.90;;;7.40;72.00;;;;;;5042930;28;20504;-41
2021/03/30 06:21:37;;;;;;;8.40;6.90;;;7.40;72.10;;;;;;5045424;28;20460;-41
2021/03/30 06:24:24;;;;;;;11.47;7.07;;;7.50;72.10;;;;;;5039992;28;20490;-41
2021/03/30 06:26:53;;;;;;;11.63;6.90;;;7.50;72.20;;;;;;5040267;28;20454;-41
2021/03/30 06:29:37;;;;;;;8.30;6.40;;;7.60;72.20;;;;;;5038556;28;20649;-41
2021/03/30 06:32:08;;;;;;;16.70;6.37;;;7.60;72.20;;;;;;5038464;28;20462;-40
2021/03/30 06:34:35;;;;;;;9.47;6.83;;;7.70;72.20;;;;;;5054676;28;20537;-41
2021/03/30 06:37:27;;;;;;;12.50;7.83;;;7.80;72.20;;;;;;5043143;28;20454;-41
2021/03/30 06:39:55;;;;;;;10.93;6.90;;;7.90;72.20;;;;;;5043728;28;20460;-41
2021/03/30 06:42:47;;;;;;;11.73;7.30;;;8.00;71.90;;;;;;5044575;28;20463;-41
2021/03/30 06:45:16;;;;;;;10.03;8.03;;;8.00;71.80;;;;;;5038457;28;20467;-41
2021/03/30 06:47:45;;;;;;;9.53;7.10;;;8.10;71.70;;;;;;5039957;28;20550;-41
2021/03/30 06:50:31;;;;;;;17.63;7.70;;;8.10;71.70;;;;;;5043284;28;21002;-41
2021/03/30 06:53:12;;;;;;;14.07;6.17;;;8.20;71.60;;;;;;5044283;28;20526;-41
2021/03/30 06:55:52;;;;;;;9.93;6.50;;;8.30;71.40;;;;;;5032971;28;20476;-41
2021/03/30 06:58:22;;;;;;;14.57;7.47;;;8.40;71.10;;;;;;5034636;28;20450;-41
2021/03/30 07:00:49;;;;;;;11.70;8.47;;;8.50;70.80;;;;;;5044551;28;20677;-41
2021/03/30 07:03:19;;;;;;;14.10;7.57;;;8.60;70.50;;;;;;5043185;28;20462;-41
2021/03/30 07:05:49;;;;;;;8.23;6.23;;;8.60;70.40;;;;;;5035184;28;20728;-41
2021/03/30 07:08:20;;;;;;;11.90;6.50;;;8.70;69.80;;;;;;5037348;28;20506;-41
2021/03/30 07:10:51;;;;;;;12.77;7.70;;;8.90;69.00;;;;;;5034977;28;20521;-41
2021/03/30 07:13:19;;;;;;;7.93;6.70;;;8.90;68.80;;;;;;5033101;28;20884;-41
2021/03/30 07:15:48;;;;;;;7.40;6.57;;;9.10;68.50;;;;;;5036249;28;20461;-41
2021/03/30 07:18:42;;;;;;;15.50;7.10;;;9.20;68.10;;;;;;5045004;28;20569;-41
2021/03/30 07:21:32;;;;;;;8.17;7.13;;;9.30;67.90;;;;;;5040336;28;20490;-41
2021/03/30 07:24:10;;;;;;;10.80;6.90;;;9.40;67.50;;;;;;5041207;28;20477;-40
2021/03/30 07:26:50;;;;;;;12.13;7.43;;;9.50;66.80;;;;;;5040500;28;21050;-41
2021/03/30 07:29:22;;;;;;;8.53;7.57;;;9.70;66.40;;;;;;5042365;28;20470;-41
2021/03/30 07:31:57;;;;;;;11.73;7.47;;;9.80;65.90;;;;;;5042724;28;20717;-41
2021/03/30 07:34:27;;;;;;;8.93;7.13;;;10.00;65.60;;;;;;5037729;28;20467;-41
2021/03/30 07:37:00;;;;;;;8.03;6.53;;;10.20;65.20;;;;;;5039015;28;20457;-41
2021/03/30 07:39:32;;;;;;;13.13;6.73;;;10.40;64.60;;;;;;5039272;28;20681;-41
2021/03/30 07:41:59;;;;;;;9.40;7.47;;;10.60;64.60;;;;;;5043081;28;20459;-41
2021/03/30 07:44:26;;;;;;;11.20;6.93;;;10.90;64.10;;;;;;5041348;28;20470;-41
2021/03/30 07:46:55;;;;;;;8.50;6.87;;;11.20;63.50;;;;;;5060100;28;20545;-41
2021/03/30 07:49:27;;;;;;;9.17;6.00;;;11.40;61.80;;;;;;5045225;28;20521;-40
2021/03/30 07:51:53;;;;;;;10.57;6.70;;;11.70;60.80;;;;;;5041502;28;20974;-40
2021/03/30 07:54:20;;;;;;;12.20;7.00;;;12.00;59.90;;;;;;5040198;28;20481;-41
2021/03/30 07:56:46;;;;;;;12.50;7.10;;;12.30;58.90;;;;;;5041791;28;20884;-40
2021/03/30 07:59:47;;;;;;;8.70;6.57;;;12.60;58.30;;;;;;5039775;28;20746;-41
2021/03/30 08:02:23;;;;;;;9.10;7.30;;;12.80;57.50;;;;;;5039579;28;20562;-41
2021/03/30 08:05:00;;;;;;;12.60;7.73;;;13.10;57.20;;;;;;5040375;28;20454;-41
2021/03/30 08:07:49;;;;;;;10.33;7.20;;;13.40;57.10;;;;;;5042506;28;20589;-41
2021/03/30 08:10:37;;;;;;;11.17;7.90;;;13.60;56.10;;;;;;5039389;28;20485;-41
2021/03/30 08:13:34;;;;;;;11.53;8.30;;;13.90;55.40;;;;;;5037763;28;20502;-41
2021/03/30 08:16:12;;;;;;;11.20;7.13;;;14.20;54.90;;;;;;5041003;28;20454;-41
2021/03/30 08:18:41;;;;;;;10.97;7.40;;;14.40;54.30;;;;;;5040708;28;20795;-41
2021/03/30 08:21:18;;;;;;;10.60;6.50;;;14.70;53.50;;;;;;5042827;28;20458;-40
2021/03/30 08:23:52;;;;;;;12.40;7.30;;;14.90;52.70;;;;;;5039098;28;20458;-41
2021/03/30 08:26:30;;;;;;;13.43;7.70;;;15.10;52.20;;;;;;5040048;28;20459;-41
2021/03/30 08:29:10;;;;;;;12.00;7.67;;;15.30;51.70;;;;;;5040715;28;20989;-41
2021/03/30 08:31:53;;;;;;;8.57;7.30;;;15.60;50.30;;;;;;5039565;28;20465;-41
2021/03/30 08:34:37;;;;;;;10.80;7.90;;;15.80;49.70;;;;;;5041568;28;20532;-41
2021/03/30 08:37:13;;;;;;;14.50;8.93;;;16.20;49.20;;;;;;5040165;28;20450;-41
2021/03/30 08:39:40;;;;;;;13.43;7.50;;;16.40;48.90;;;;;;5060170;28;20450;-41
2021/03/30 08:42:20;;;;;;;16.83;9.33;;;16.70;48.20;;;;;;5045358;28;20497;-41
2021/03/30 08:45:05;;;;;;;14.70;9.63;;;17.00;47.50;;;;;;5043068;28;20495;-41
2021/03/30 08:47:37;;;;;;;16.77;9.10;;;17.30;46.70;;;;;;5041612;28;20491;-41
2021/03/30 08:50:11;;;;;;;12.67;7.80;;;17.70;46.80;;;;;;5056549;28;21004;-41
2021/03/30 08:52:38;;;;;;;10.73;8.40;;;18.00;46.30;;;;;;5043489;28;20454;-41
2021/03/30 08:55:06;;;;;;;12.60;8.30;;;18.30;46.00;;;;;;5041591;28;20941;-41
2021/03/30 08:57:37;;;;;;;12.90;8.53;;;18.60;45.70;;;;;;5044478;28;22110;-41
2021/03/30 09:00:12;;;;;;;15.03;9.60;;;18.90;45.00;;;;;;5043146;28;20948;-41
2021/03/30 09:02:42;;;;;;;12.33;8.07;;;19.30;44.30;;;;;;5061290;28;20497;-41
2021/03/30 09:05:19;;;;;;;13.03;9.07;;;19.60;43.60;;;;;;5041890;28;20546;-42
2021/03/30 09:07:47;;;;;;;11.63;9.23;;;19.90;42.90;;;;;;5044125;28;20490;-42
2021/03/30 09:10:18;;;;;;;15.37;8.60;;;20.20;42.20;;;;;;5047645;28;20479;-42
2021/03/30 09:12:46;;;;;;;13.90;7.90;;;20.50;41.60;;;;;;5039718;28;20486;-42
2021/03/30 09:15:16;;;;;;;12.70;9.00;;;20.80;40.90;;;;;;5045160;28;20811;-42
2021/03/30 09:17:59;;;;;;;11.20;8.17;;;21.10;40.70;;;;;;5043562;28;20473;-41
2021/03/30 09:20:28;;;;;;;14.50;9.53;;;21.50;40.10;;;;;;5043568;28;20446;-42
2021/03/30 09:22:58;;;;;;;21.43;10.23;;;21.80;39.60;;;;;;5046228;28;20458;-42
2021/03/30 09:25:38;;;;;;;24.70;21.20;;;22.10;38.80;;;;;;5040478;28;20462;-42
2021/03/30 09:28:05;;;;;;;20.37;15.67;;;22.30;38.60;;;;;;5044171;28;20455;-42
2021/03/30 09:30:35;;;;;;;39.67;35.40;;;22.50;37.90;;;;;;5044722;28;20455;-42
2021/03/30 09:33:01;;;;;;;31.83;26.13;;;22.70;37.30;;;;;;5046386;28;20517;-42
2021/03/30 09:35:28;;;;;;;17.90;12.93;;;23.00;37.50;;;;;;5045563;28;20462;-42
2021/03/30 09:38:04;;;;;;;21.03;14.70;;;23.30;37.50;;;;;;5044945;28;20447;-42
2021/03/30 09:40:41;;;;;;;28.40;19.27;;;23.60;37.20;;;;;;5047715;28;20451;-42
2021/03/30 09:43:14;;;;;;;13.63;9.20;;;23.80;36.20;;;;;;5039138;28;20481;-42
2021/03/30 09:45:42;;;;;;;16.40;10.37;;;24.00;36.20;;;;;;5045595;28;21055;-42
2021/03/30 09:48:11;;;;;;;28.27;18.13;;;24.10;35.80;;;;;;5046612;28;20481;-42
2021/03/30 09:50:45;;;;;;;34.03;23.07;;;24.20;35.50;;;;;;5039857;28;20537;-42
2021/03/30 09:53:12;;;;;;;39.20;31.03;;;24.40;35.00;;;;;;5045580;28;20457;-42
2021/03/30 09:55:44;;;;;;;17.03;12.30;;;24.50;35.10;;;;;;5043040;28;20450;-41
2021/03/30 09:58:15;;;;;;;29.07;19.83;;;24.70;35.10;;;;;;5043886;28;20458;-41
2021/03/30 10:00:51;;;;;;;19.47;14.90;;;24.90;34.70;;;;;;5026358;28;20447;-42
2021/03/30 10:03:19;;;;;;;31.73;19.60;;;25.10;34.70;;;;;;5041159;28;20468;-42
2021/03/30 10:05:45;;;;;;;17.07;12.00;;;25.20;33.80;;;;;;5058249;28;20445;-42
2021/03/30 10:08:18;;;;;;;13.47;9.60;;;25.40;33.50;;;;;;5044296;28;20537;-42
2021/03/30 10:10:47;;;;;;;15.03;11.90;;;25.50;32.50;;;;;;5045092;28;20539;-42
2021/03/30 10:13:36;;;;;;;13.77;10.77;;;25.60;32.50;;;;;;5051399;28;20465;-42
2021/03/30 10:16:07;;;;;;;13.43;9.47;;;25.70;31.60;;;;;;5042272;28;20446;-42
2021/03/30 10:18:35;;;;;;;16.50;10.00;;;25.90;32.10;;;;;;5042875;28;20466;-42
2021/03/30 10:21:10;;;;;;;15.53;10.10;;;26.20;32.00;;;;;;5044389;28;20449;-41
2021/03/30 10:23:41;;;;;;;11.63;8.60;;;26.50;31.80;;;;;;5042497;28;20548;-42
2021/03/30 10:26:28;;;;;;;13.60;9.40;;;26.70;31.50;;;;;;5040651;28;20462;-42
2021/03/30 10:29:04;;;;;;;14.17;10.43;;;27.00;30.80;;;;;;5046215;28;21070;-42
2021/03/30 10:31:48;;;;;;;15.13;10.00;;;27.40;30.70;;;;;;5047796;28;20964;-41
2021/03/30 10:34:29;;;;;;;21.83;10.80;;;27.70;29.90;;;;;;5045382;28;20863;-42
2021/03/30 10:36:58;;;;;;;11.70;9.30;;;27.80;29.20;;;;;;5045650;28;20846;-42
2021/03/30 10:39:39;;;;;;;15.17;10.10;;;27.90;29.20;;;;;;5044731;28;20997;-41
2021/03/30 10:42:07;;;;;;;18.90;10.93;;;28.00;29.50;;;;;;5044109;28;20457;-41
2021/03/30 10:44:41;;;;;;;14.07;9.77;;;28.20;29.30;;;;;;5063170;28;20552;-42
2021/03/30 10:47:29;;;;;;;14.00;10.73;;;28.30;28.50;;;;;;5040212;28;20468;-42
2021/03/30 10:49:56;;;;;;;13.17;10.37;;;28.30;28.70;;;;;;5055714;28;20466;-42
2021/03/30 10:52:27;;;;;;;13.83;9.13;;;28.40;28.80;;;;;;5037787;28;20258;-42
2021/03/30 10:54:58;;;;;;;12.50;9.50;;;28.30;28.80;;;;;;5039454;28;20843;-42
2021/03/30 10:57:32;;;;;;;15.03;10.07;;;28.40;28.50;;;;;;5040912;28;20456;-42
2021/03/30 10:59:58;;;;;;;15.67;9.20;;;28.40;28.50;;;;;;5040468;28;20458;-42
2021/03/30 11:02:25;;;;;;;14.80;10.20;;;28.50;28.00;;;;;;5045147;28;20216;-42
2021/03/30 11:04:51;;;;;;;14.20;9.30;;;28.50;27.60;;;;;;5039299;28;20966;-42
2021/03/30 11:07:17;;;;;;;13.40;8.73;;;28.50;27.70;;;;;;5047552;28;20203;-42
2021/03/30 11:09:43;;;;;;;14.40;9.33;;;28.50;28.00;;;;;;5042349;28;20711;-42
2021/03/30 11:12:11;;;;;;;14.57;10.90;;;28.40;27.90;;;;;;5043165;28;20442;-42
2021/03/30 11:14:38;;;;;;;18.27;11.03;;;28.30;27.80;;;;;;5041919;28;20949;-42
2021/03/30 11:17:04;;;;;;;17.00;10.50;;;28.30;28.50;;;;;;5042715;28;21037;-42
2021/03/30 11:19:31;;;;;;;15.57;10.80;;;28.20;29.00;;;;;;5044791;28;20203;-42
2021/03/30 11:21:58;;;;;;;16.80;10.10;;;28.10;28.80;;;;;;5040185;28;20460;-42
2021/03/30 11:24:29;;;;;;;17.17;11.00;;;28.10;28.70;;;;;;5045454;28;20535;-42
2021/03/30 11:26:57;;;;;;;17.97;11.47;;;27.90;29.20;;;;;;5042870;28;20449;-42
2021/03/30 11:32:31;;;;;;;15.43;10.60;;;27.90;29.00;;;;;;5040780;28;20536;-42
2021/03/30 11:35:03;;;;;;;14.70;10.07;;;27.80;28.50;;;;;;5038975;28;20506;-42
2021/03/30 11:39:57;;;;;;;16.97;10.17;;;27.50;29.20;;;;;;5043393;28;20889;-42
2021/03/30 11:42:25;;;;;;;16.53;10.83;;;27.40;29.60;;;;;;5044354;28;20463;-42
2021/03/30 11:44:52;;;;;;;15.20;10.07;;;27.40;30.20;;;;;;5043789;28;20446;-42
2021/03/30 11:47:19;;;;;;;17.23;11.40;;;27.30;30.80;;;;;;5033956;28;20516;-42
2021/03/30 11:49:45;;;;;;;18.40;10.80;;;27.20;30.40;;;;;;5043066;28;20477;-42
2021/03/30 11:52:11;;;;;;;11.00;9.13;;;27.20;30.00;;;;;;5040908;28;20552;-42
2021/03/30 11:54:38;;;;;;;14.23;10.43;;;27.10;29.50;;;;;;5045090;28;20915;-42
2021/03/30 11:57:04;;;;;;;12.53;8.17;;;27.10;29.80;;;;;;5044623;28;20545;-42
2021/03/30 11:59:31;;;;;;;12.03;8.33;;;27.00;29.60;;;;;;5039189;28;20474;-42
2021/03/30 12:01:57;;;;;;;12.20;8.50;;;26.90;28.80;;;;;;5042739;28;20467;-42
2021/03/30 12:04:24;;;;;;;15.80;8.50;;;26.90;28.60;;;;;;5044996;28;20539;-42
2021/03/30 12:06:53;;;;;;;9.50;7.17;;;26.80;28.00;;;;;;5043412;28;20477;-42
2021/03/30 12:09:19;;;;;;;10.90;7.80;;;26.60;28.10;;;;;;5044467;28;20528;-42
2021/03/30 12:11:46;;;;;;;8.93;5.90;;;26.50;27.90;;;;;;5040820;28;20451;-42
2021/03/30 12:14:14;;;;;;;10.80;5.53;;;26.30;28.00;;;;;;5045268;28;20507;-42
2021/03/30 12:16:42;;;;;;;9.57;5.70;;;26.30;27.40;;;;;;5046250;28;20481;-42
2021/03/30 12:19:09;;;;;;;9.67;5.80;;;26.20;27.30;;;;;;5043280;28;20472;-42
2021/03/30 12:21:35;;;;;;;9.23;7.00;;;26.10;27.70;;;;;;5037049;28;20545;-42
2021/03/30 12:24:02;;;;;;;13.53;6.73;;;26.10;27.90;;;;;;5041760;28;20469;-42
2021/03/30 12:26:28;;;;;;;7.83;5.27;;;26.00;27.60;;;;;;5046261;28;20480;-42
2021/03/30 12:28:54;;;;;;;13.90;7.20;;;25.90;27.30;;;;;;5039542;28;20485;-42
2021/03/30 12:31:23;;;;;;;9.03;6.47;;;25.90;27.10;;;;;;5040832;28;20493;-42
2021/03/30 12:33:49;;;;;;;10.60;5.53;;;25.80;27.90;;;;;;5045948;28;20541;-42
2021/03/30 12:36:15;;;;;;;8.47;5.70;;;25.70;28.30;;;;;;5045235;28;20525;-42
2021/03/30 12:38:42;;;;;;;12.23;6.77;;;25.60;28.10;;;;;;5042913;28;20511;-42
2021/03/30 12:41:08;;;;;;;8.23;6.00;;;25.50;28.10;;;;;;5038922;28;20954;-42
2021/03/30 12:43:34;;;;;;;9.20;6.17;;;25.50;27.90;;;;;;5054299;28;20512;-42
2021/03/30 12:46:01;;;;;;;12.70;7.80;;;25.50;27.50;;;;;;5044860;28;20461;-42
2021/03/30 12:48:27;;;;;;;9.10;5.00;;;25.50;27.80;;;;;;5046185;28;20549;-41
2021/03/30 12:50:53;;;;;;;6.53;5.00;;;25.60;27.20;;;;;;5046057;28;20780;-42
2021/03/30 12:53:19;;;;;;;11.03;5.20;;;25.70;26.50;;;;;;5045445;28;20543;-42
2021/03/30 12:55:46;;;;;;;7.43;4.37;;;25.70;25.80;;;;;;5049179;28;20437;-42
2021/03/30 12:58:12;;;;;;;6.00;4.10;;;25.80;25.40;;;;;;5049568;28;20521;-42
2021/03/30 13:00:39;;;;;;;7.80;5.17;;;25.90;25.80;;;;;;5045895;28;20450;-42
2021/03/30 13:03:25;;;;;;;11.97;6.33;;;26.00;26.10;;;;;;5046298;28;20450;-42
2021/03/30 13:05:52;;;;;;;10.40;6.50;;;26.10;26.90;;;;;;5048060;28;20449;-42
2021/03/30 13:08:19;;;;;;;8.73;5.97;;;26.10;26.90;;;;;;5046836;28;20834;-42
2021/03/30 13:10:45;;;;;;;9.90;6.73;;;26.20;26.90;;;;;;5045451;28;20481;-42